TFSTR EDWR-EDWG
Flight info
| Callsign | TFSTR |
|---|---|
| Flight time | 0h 28m |
| Altitude | 1500 |
| Route | EDWJ DCT EDWY DCT EDWZ DCT EDWL |
| Aircraft | C172/L-SFG/C |
Departure
| Time | 2026-04-13 16:08 |
|---|---|
| Airport | Borkum Airport (EDWR) |
Arrival
| Time | 2026-04-13 16:37 |
|---|---|
| Airport | Wangerooge Airport (EDWG) |
| Time | Latitude | Longitude | Altitude | Speed | Heading |
|---|---|---|---|---|---|
| 2026-04-13 16:07 | 53.68052 | 7.05151 | 10 ft | 0 kts | 269° |
| 2026-04-13 16:07 | 53.68047 | 7.05158 | 10 ft | 5 kts | 99° |
| 2026-04-13 16:07 | 53.68047 | 7.05164 | 10 ft | 0 kts | 87° |
| 2026-04-13 16:08 | 53.68099 | 7.05497 | 10 ft | 56 kts | 75° |
| 2026-04-13 16:08 | 53.68212 | 7.06210 | 160 ft | 64 kts | 69° |
| 2026-04-13 16:08 | 53.68375 | 7.06925 | 309 ft | 72 kts | 69° |
| 2026-04-13 16:08 | 53.68450 | 7.07584 | 626 ft | 55 kts | 81° |
| 2026-04-13 16:09 | 53.68490 | 7.08239 | 813 ft | 58 kts | 82° |
| 2026-04-13 16:09 | 53.68539 | 7.08906 | 964 ft | 66 kts | 81° |
| 2026-04-13 16:09 | 53.68600 | 7.09688 | 1119 ft | 74 kts | 81° |
| 2026-04-13 16:09 | 53.68780 | 7.10539 | 1279 ft | 82 kts | 57° |
| 2026-04-13 16:10 | 53.69166 | 7.11315 | 1437 ft | 89 kts | 50° |
| 2026-04-13 16:10 | 53.69618 | 7.12148 | 1493 ft | 103 kts | 49° |
| 2026-04-13 16:10 | 53.70129 | 7.13102 | 1495 ft | 114 kts | 52° |
| 2026-04-13 16:10 | 53.70432 | 7.14352 | 1494 ft | 119 kts | 69° |
| 2026-04-13 16:11 | 53.70756 | 7.15662 | 1493 ft | 122 kts | 71° |
| 2026-04-13 16:11 | 53.70883 | 7.17036 | 1198 ft | 118 kts | 97° |
| 2026-04-13 16:11 | 53.70618 | 7.18229 | 747 ft | 107 kts | 112° |
| 2026-04-13 16:11 | 53.70504 | 7.19275 | 449 ft | 83 kts | 85° |
| 2026-04-13 16:12 | 53.70540 | 7.20100 | 284 ft | 60 kts | 83° |
| 2026-04-13 16:12 | 53.70576 | 7.20756 | 178 ft | 55 kts | 81° |
| 2026-04-13 16:12 | 53.70616 | 7.21429 | 112 ft | 64 kts | 83° |
| 2026-04-13 16:12 | 53.70654 | 7.22176 | 29 ft | 64 kts | 84° |
| 2026-04-13 16:13 | 53.70683 | 7.22804 | 6 ft | 34 kts | 86° |
| 2026-04-13 16:13 | 53.70688 | 7.22925 | 6 ft | 3 kts | 86° |
| 2026-04-13 16:13 | 53.70702 | 7.23232 | 6 ft | 52 kts | 95° |
| 2026-04-13 16:13 | 53.70752 | 7.23970 | 125 ft | 65 kts | 77° |
| 2026-04-13 16:14 | 53.70879 | 7.24690 | 287 ft | 69 kts | 67° |
| 2026-04-13 16:14 | 53.71131 | 7.25493 | 369 ft | 79 kts | 62° |
| 2026-04-13 16:14 | 53.71292 | 7.26371 | 539 ft | 81 kts | 75° |
| 2026-04-13 16:14 | 53.71429 | 7.27315 | 744 ft | 84 kts | 76° |
| 2026-04-13 16:15 | 53.71571 | 7.28300 | 949 ft | 87 kts | 76° |
| 2026-04-13 16:15 | 53.71718 | 7.29296 | 1143 ft | 89 kts | 76° |
| 2026-04-13 16:15 | 53.71881 | 7.30303 | 1020 ft | 99 kts | 74° |
| 2026-04-13 16:15 | 53.72107 | 7.31445 | 835 ft | 101 kts | 69° |
| 2026-04-13 16:16 | 53.72354 | 7.32495 | 667 ft | 89 kts | 69° |
| 2026-04-13 16:16 | 53.72530 | 7.33452 | 436 ft | 78 kts | 78° |
| 2026-04-13 16:16 | 53.72575 | 7.34253 | 327 ft | 59 kts | 86° |
| 2026-04-13 16:16 | 53.72576 | 7.34924 | 231 ft | 56 kts | 89° |
| 2026-04-13 16:17 | 53.72550 | 7.35575 | 160 ft | 57 kts | 90° |
| 2026-04-13 16:17 | 53.72524 | 7.36280 | 128 ft | 60 kts | 89° |
| 2026-04-13 16:17 | 53.72498 | 7.37011 | 27 ft | 64 kts | 92° |
| 2026-04-13 16:17 | 53.72475 | 7.37546 | 9 ft | 16 kts | 101° |
| 2026-04-13 16:18 | 53.72477 | 7.37539 | 9 ft | 19 kts | 271° |
| 2026-04-13 16:18 | 53.72496 | 7.36966 | 18 ft | 70 kts | 275° |
| 2026-04-13 16:18 | 53.72492 | 7.36101 | 124 ft | 81 kts | 283° |
| 2026-04-13 16:18 | 53.72875 | 7.35707 | 340 ft | 69 kts | 34° |
| 2026-04-13 16:19 | 53.73356 | 7.36305 | 426 ft | 84 kts | 56° |
| 2026-04-13 16:19 | 53.73462 | 7.37143 | 755 ft | 73 kts | 95° |
| 2026-04-13 16:19 | 53.73628 | 7.37955 | 936 ft | 80 kts | 48° |
| 2026-04-13 16:19 | 53.74163 | 7.38341 | 1120 ft | 88 kts | 17° |
| 2026-04-13 16:20 | 53.74656 | 7.38969 | 1179 ft | 100 kts | 59° |
| 2026-04-13 16:20 | 53.74861 | 7.40131 | 1165 ft | 105 kts | 85° |
| 2026-04-13 16:20 | 53.74850 | 7.41380 | 1163 ft | 108 kts | 92° |
| 2026-04-13 16:20 | 53.74807 | 7.42665 | 1163 ft | 109 kts | 92° |
| 2026-04-13 16:21 | 53.74765 | 7.43870 | 1162 ft | 110 kts | 92° |
| 2026-04-13 16:21 | 53.74718 | 7.45181 | 1162 ft | 110 kts | 92° |
| 2026-04-13 16:21 | 53.74673 | 7.46476 | 1162 ft | 111 kts | 92° |
| 2026-04-13 16:21 | 53.74626 | 7.47788 | 1162 ft | 111 kts | 92° |
| 2026-04-13 16:22 | 53.74580 | 7.49091 | 1162 ft | 111 kts | 92° |
| 2026-04-13 16:22 | 53.74534 | 7.50394 | 1162 ft | 111 kts | 92° |
| 2026-04-13 16:22 | 53.74475 | 7.52888 | 1162 ft | 111 kts | 88° |
| 2026-04-13 16:23 | 53.74498 | 7.54203 | 1162 ft | 111 kts | 88° |
| 2026-04-13 16:23 | 53.74523 | 7.55516 | 1162 ft | 111 kts | 87° |
| 2026-04-13 16:23 | 53.74548 | 7.56823 | 1162 ft | 111 kts | 87° |
| 2026-04-13 16:23 | 53.74573 | 7.58049 | 1162 ft | 111 kts | 86° |
| 2026-04-13 16:24 | 53.74686 | 7.59356 | 1162 ft | 111 kts | 81° |
| 2026-04-13 16:24 | 53.74809 | 7.60648 | 1162 ft | 111 kts | 81° |
| 2026-04-13 16:24 | 53.74907 | 7.61662 | 1162 ft | 110 kts | 81° |
| 2026-04-13 16:24 | 53.75028 | 7.62913 | 1160 ft | 104 kts | 81° |
| 2026-04-13 16:25 | 53.75141 | 7.64083 | 1160 ft | 100 kts | 81° |
| 2026-04-13 16:25 | 53.75250 | 7.65203 | 1161 ft | 97 kts | 81° |
| 2026-04-13 16:25 | 53.75358 | 7.66323 | 1162 ft | 96 kts | 81° |
| 2026-04-13 16:25 | 53.75454 | 7.67313 | 1162 ft | 95 kts | 81° |
| 2026-04-13 16:26 | 53.75559 | 7.68401 | 1162 ft | 94 kts | 81° |
| 2026-04-13 16:26 | 53.75666 | 7.69506 | 1162 ft | 93 kts | 81° |
| 2026-04-13 16:26 | 53.75769 | 7.70564 | 1161 ft | 89 kts | 81° |
| 2026-04-13 16:26 | 53.75867 | 7.71578 | 1161 ft | 86 kts | 81° |
| 2026-04-13 16:27 | 53.75963 | 7.72562 | 1161 ft | 83 kts | 81° |
| 2026-04-13 16:27 | 53.76058 | 7.73536 | 1162 ft | 82 kts | 81° |
| 2026-04-13 16:27 | 53.76149 | 7.74470 | 1162 ft | 81 kts | 81° |
| 2026-04-13 16:27 | 53.76241 | 7.75414 | 1162 ft | 80 kts | 81° |
| 2026-04-13 16:28 | 53.76324 | 7.76263 | 1162 ft | 79 kts | 81° |
| 2026-04-13 16:28 | 53.76413 | 7.77172 | 1162 ft | 79 kts | 81° |
| 2026-04-13 16:28 | 53.76503 | 7.78083 | 1162 ft | 78 kts | 81° |
| 2026-04-13 16:28 | 53.76593 | 7.79002 | 1162 ft | 78 kts | 81° |
| 2026-04-13 16:29 | 53.76681 | 7.79902 | 1162 ft | 78 kts | 81° |
| 2026-04-13 16:29 | 53.76769 | 7.80797 | 1162 ft | 77 kts | 81° |
| 2026-04-13 16:29 | 53.76820 | 7.81317 | 1162 ft | 77 kts | 81° |
| 2026-04-13 16:29 | 53.76904 | 7.82178 | 1162 ft | 77 kts | 81° |
| 2026-04-13 16:30 | 53.76992 | 7.83073 | 1162 ft | 77 kts | 81° |
| 2026-04-13 16:30 | 53.77080 | 7.83971 | 1162 ft | 77 kts | 81° |
| 2026-04-13 16:30 | 53.77169 | 7.84883 | 1162 ft | 77 kts | 81° |
| 2026-04-13 16:30 | 53.77256 | 7.85770 | 1162 ft | 77 kts | 81° |
| 2026-04-13 16:31 | 53.77345 | 7.86676 | 1163 ft | 77 kts | 81° |
| 2026-04-13 16:31 | 53.77432 | 7.87562 | 1162 ft | 77 kts | 81° |
| 2026-04-13 16:31 | 53.77520 | 7.88458 | 1162 ft | 77 kts | 81° |
| 2026-04-13 16:31 | 53.77552 | 7.89397 | 1099 ft | 84 kts | 90° |
| 2026-04-13 16:32 | 53.77511 | 7.90296 | 1075 ft | 61 kts | 87° |
| 2026-04-13 16:32 | 53.77571 | 7.91092 | 1165 ft | 79 kts | 81° |
| 2026-04-13 16:32 | 53.77674 | 7.92153 | 1172 ft | 102 kts | 81° |
| 2026-04-13 16:32 | 53.77793 | 7.93390 | 1168 ft | 114 kts | 81° |
| 2026-04-13 16:33 | 53.77925 | 7.94769 | 1165 ft | 121 kts | 81° |
| 2026-04-13 16:33 | 53.78061 | 7.96193 | 1163 ft | 124 kts | 81° |
| 2026-04-13 16:33 | 53.78159 | 7.97659 | 1162 ft | 125 kts | 100° |
| 2026-04-13 16:33 | 53.77568 | 7.98652 | 1100 ft | 129 kts | 165° |
| 2026-04-13 16:34 | 53.76792 | 7.98252 | 1257 ft | 113 kts | 210° |
| 2026-04-13 16:34 | 53.76167 | 7.97410 | 1262 ft | 113 kts | 220° |
| 2026-04-13 16:34 | 53.75772 | 7.96304 | 1236 ft | 114 kts | 255° |
| 2026-04-13 16:34 | 53.75698 | 7.94970 | 1048 ft | 122 kts | 269° |
| 2026-04-13 16:35 | 53.75814 | 7.93621 | 1028 ft | 107 kts | 291° |
| 2026-04-13 16:35 | 53.76139 | 7.92527 | 843 ft | 107 kts | 301° |
| 2026-04-13 16:35 | 53.76511 | 7.91511 | 633 ft | 102 kts | 305° |
| 2026-04-13 16:35 | 53.76970 | 7.90841 | 486 ft | 72 kts | 338° |
| 2026-04-13 16:36 | 53.77412 | 7.90760 | 303 ft | 62 kts | 16° |
| 2026-04-13 16:36 | 53.77821 | 7.90950 | 154 ft | 58 kts | 18° |
| 2026-04-13 16:36 | 53.78192 | 7.91129 | 58 ft | 56 kts | 24° |
| 2026-04-13 16:36 | 53.78570 | 7.91337 | 7 ft | 51 kts | 19° |
| 2026-04-13 16:37 | 53.78796 | 7.91457 | 7 ft | 11 kts | 349° |
| 2026-04-13 16:37 | 53.78789 | 7.91375 | 7 ft | 14 kts | 248° |
| 2026-04-13 16:37 | 53.78762 | 7.91221 | 7 ft | 15 kts | 263° |
| 2026-04-13 16:37 | 53.78758 | 7.91075 | 7 ft | 10 kts | 324° |
| 2026-04-13 16:38 | 53.78796 | 7.90993 | 7 ft | 7 kts | 301° |
| 2026-04-13 16:38 | 53.78798 | 7.90935 | 7 ft | 0 kts | 253° |